Los Angeles, California
Current Conditions -  °F | °C
As of 5:47 PM on Sunday 25 Jan 2015 (Local Time) from KCQT Reporting Station
Clear Clear  
Wind Chill: 21°   Ceiling: Unl
Heat Index: 21°   Visibility: 10mi
Dew Point: -1°   Wind: 0mph
Humidity: 24%   Direction: NA
Pressure: 29.99"   Gusts: NA
Location:  34.05°N, 118.24°W
Report Text: KCQT 260147Z AUTO 00000KT 10SM CLR 21/M01 A2999 RMK AO2 SLP155 T02111006 $
Loading
Personal Weather Stations






























Interactive Weather Map New forecast layout! Learn more

10-Day Weather Forecast

Advertisements
Track Severe Weather on mobile